createdAt,value
2022-11-25T00:03:04.256Z,86.68
2022-11-25T00:08:07.884Z,86.73
2022-11-25T00:13:11.092Z,86.81
2022-11-25T00:18:14.301Z,86.80
2022-11-25T00:23:17.612Z,86.88
2022-11-25T00:28:21.225Z,86.94
2022-11-25T00:33:24.332Z,87.06
2022-11-25T00:38:27.542Z,87.11
2022-11-25T00:43:49.279Z,87.08
2022-11-25T00:48:52.490Z,87.12
2022-11-25T00:53:58.907Z,87.06
2022-11-25T00:59:03.822Z,87.01
2022-11-25T01:04:08.299Z,86.95
2022-11-25T01:09:12.490Z,86.85
2022-11-25T01:14:15.597Z,86.98
2022-11-25T01:19:20.283Z,86.89
2022-11-25T01:24:24.289Z,86.94
2022-11-25T01:29:28.292Z,86.85
2022-11-25T01:34:32.873Z,86.77
2022-11-25T01:39:36.137Z,86.99
2022-11-25T01:44:39.860Z,87.01
2022-11-25T01:49:58.630Z,87.31
2022-11-25T01:55:01.739Z,87.49
2022-11-25T02:00:08.007Z,87.43
2022-11-25T02:05:16.344Z,87.48
2022-11-25T02:10:27.478Z,87.55
2022-11-25T02:15:33.678Z,87.67
2022-11-25T02:20:40.201Z,87.96
2022-11-25T02:25:45.148Z,88.00
2022-11-25T02:30:49.360Z,87.91
2022-11-25T02:36:11.742Z,87.84
2022-11-25T02:41:20.040Z,87.75
2022-11-25T02:46:25.427Z,87.62
2022-11-25T02:51:31.703Z,87.52
2022-11-25T02:56:36.527Z,87.47
2022-11-25T03:01:40.165Z,87.53
2022-11-25T03:06:43.474Z,87.48
2022-11-25T03:12:05.114Z,87.33
2022-11-25T03:17:08.425Z,87.02
2022-11-25T03:22:11.634Z,86.91
2022-11-25T03:27:15.048Z,87.01
2022-11-25T03:32:18.798Z,86.96
2022-11-25T03:37:22.436Z,86.99
2022-11-25T03:42:25.692Z,87.18
2022-11-25T03:47:29.106Z,87.38
2022-11-25T03:52:32.108Z,87.67
2022-11-25T03:57:35.932Z,87.80
2022-11-25T04:02:39.200Z,87.84
2022-11-25T04:07:42.604Z,87.80
2022-11-25T04:12:48.938Z,87.74
2022-11-25T04:17:52.140Z,87.69
2022-11-25T04:22:55.246Z,87.54
2022-11-25T04:27:58.767Z,87.49
2022-11-25T04:33:02.688Z,87.09
2022-11-25T04:38:05.996Z,87.02
2022-11-25T04:43:10.812Z,86.90
2022-11-25T04:48:14.158Z,86.86
2022-11-25T04:53:17.366Z,86.89
2022-11-25T04:58:40.467Z,86.79
2022-11-25T05:03:48.846Z,86.76
2022-11-25T05:08:54.028Z,86.73
2022-11-25T05:13:57.535Z,86.60
2022-11-25T05:19:00.638Z,86.45
2022-11-25T05:24:03.948Z,86.52
2022-11-25T05:29:07.240Z,86.56
2022-11-25T05:34:10.566Z,86.49
2022-11-25T05:39:14.085Z,86.43
2022-11-25T05:44:22.495Z,86.28
2022-11-25T05:49:26.131Z,86.19
2022-11-25T05:54:29.440Z,86.27
2022-11-25T05:59:32.667Z,86.23
2022-11-25T06:04:36.010Z,85.98
2022-11-25T06:09:39.576Z,86.00
2022-11-25T06:14:42.783Z,85.98
2022-11-25T06:19:47.116Z,86.07
2022-11-25T06:24:57.568Z,85.90
2022-11-25T06:30:05.464Z,85.71
2022-11-25T06:35:09.746Z,85.44
2022-11-25T06:40:13.260Z,85.14
2022-11-25T06:45:16.775Z,85.19
2022-11-25T06:50:19.851Z,85.29
2022-11-25T06:55:23.089Z,85.47
2022-11-25T07:00:26.506Z,85.52
2022-11-25T07:05:29.808Z,85.28
2022-11-25T07:10:34.451Z,85.03
2022-11-25T07:15:38.688Z,85.10
2022-11-25T07:20:42.197Z,84.45
2022-11-25T07:25:46.016Z,84.08
2022-11-25T07:36:15.586Z,82.79
2022-11-25T07:41:24.602Z,82.53
2022-11-25T07:46:31.806Z,82.64
2022-11-25T07:51:40.752Z,82.89
2022-11-25T07:56:45.101Z,82.99
2022-11-25T08:01:53.502Z,83.14
2022-11-25T08:06:56.842Z,83.27
2022-11-25T08:11:59.951Z,83.19
2022-11-25T08:17:05.714Z,83.00
2022-11-25T08:22:09.028Z,82.54
2022-11-25T08:27:12.232Z,82.50
2022-11-25T08:32:15.644Z,82.74
2022-11-25T08:37:18.850Z,83.51
2022-11-25T08:42:22.162Z,83.23
2022-11-25T08:47:26.350Z,82.70
2022-11-25T08:52:29.813Z,82.56
2022-11-25T08:57:33.115Z,82.87
2022-11-25T09:02:36.278Z,82.43
2022-11-25T09:07:39.750Z,81.54
2022-11-25T09:12:43.147Z,81.12
2022-11-25T09:17:46.253Z,81.34
2022-11-25T09:22:49.772Z,81.44
2022-11-25T09:27:52.973Z,80.51
2022-11-25T09:32:57.108Z,80.36
2022-11-25T09:38:00.314Z,80.62
2022-11-25T09:43:22.259Z,80.98
2022-11-25T09:48:41.338Z,80.87
2022-11-25T09:53:52.738Z,80.69
2022-11-25T09:59:08.130Z,80.09
2022-11-25T10:04:21.684Z,79.26
2022-11-25T10:09:28.357Z,79.52
2022-11-25T10:14:51.954Z,79.39
2022-11-25T10:20:14.619Z,79.56
2022-11-25T10:25:20.694Z,79.45
2022-11-25T10:30:28.772Z,79.10
2022-11-25T10:35:36.326Z,79.69
2022-11-25T10:40:39.536Z,79.96
2022-11-25T10:45:54.933Z,79.95
2022-11-25T10:51:19.434Z,79.04
2022-11-25T10:56:22.747Z,78.83
2022-11-25T11:01:26.122Z,78.88
2022-11-25T11:06:41.037Z,78.56
2022-11-25T11:11:49.368Z,79.01
2022-11-25T11:16:58.207Z,78.98
2022-11-25T11:22:17.396Z,79.75
2022-11-25T11:27:25.767Z,80.02
2022-11-25T11:32:29.638Z,78.85
2022-11-25T11:37:54.765Z,78.47
2022-11-25T11:43:09.846Z,79.14
2022-11-25T11:48:32.736Z,79.52
2022-11-25T11:53:50.874Z,79.41
2022-11-25T11:59:31.988Z,79.03
2022-11-25T12:04:50.050Z,78.47
2022-11-25T12:10:00.503Z,78.68
2022-11-25T12:15:17.534Z,78.35
2022-11-25T12:20:42.864Z,78.39
2022-11-25T12:25:52.300Z,78.49
2022-11-25T12:31:31.698Z,78.64
2022-11-25T12:36:38.257Z,78.54
2022-11-25T12:41:51.192Z,78.25
2022-11-25T12:46:56.775Z,78.36
2022-11-25T12:51:59.726Z,77.74
2022-11-25T12:57:25.497Z,77.46
2022-11-25T13:03:13.716Z,78.06
2022-11-25T13:08:31.298Z,78.19
2022-11-25T13:14:04.877Z,78.23
2022-11-25T13:19:14.786Z,78.17
2022-11-25T13:24:31.202Z,78.36
2022-11-25T13:29:40.559Z,78.45
2022-11-25T13:34:43.761Z,78.75
2022-11-25T13:39:46.971Z,78.80
2022-11-25T13:44:58.860Z,79.12
2022-11-25T13:50:22.023Z,79.19
2022-11-25T13:55:32.029Z,79.40
2022-11-25T14:00:39.995Z,79.55
2022-11-25T14:06:05.883Z,79.46
2022-11-25T14:11:47.079Z,79.49
2022-11-25T14:17:25.004Z,79.92
2022-11-25T14:22:35.993Z,80.14
2022-11-25T14:27:39.734Z,80.50
2022-11-25T14:33:04.013Z,80.81
2022-11-25T14:38:16.641Z,81.15
2022-11-25T14:43:25.604Z,81.27
2022-11-25T14:48:28.790Z,81.27
2022-11-25T14:53:40.762Z,81.45
2022-11-25T14:58:50.057Z,81.74
2022-11-25T15:04:07.300Z,81.72
2022-11-25T15:09:31.821Z,81.76
2022-11-25T15:14:57.636Z,81.91
2022-11-25T15:20:06.235Z,81.88
2022-11-25T15:25:16.446Z,81.95
2022-11-25T15:30:29.455Z,81.70
2022-11-25T15:35:34.122Z,81.96
2022-11-25T15:40:43.293Z,82.05
2022-11-25T15:45:50.188Z,82.13
2022-11-25T15:51:05.867Z,82.11
2022-11-25T15:56:12.719Z,82.24
2022-11-25T16:01:16.003Z,82.13
2022-11-25T16:06:25.669Z,82.22
2022-11-25T16:11:34.163Z,82.23
2022-11-25T16:16:38.769Z,82.17
2022-11-25T16:21:47.592Z,82.12
2022-11-25T16:27:00.927Z,82.11
2022-11-25T16:32:15.040Z,82.25
2022-11-25T16:37:18.671Z,82.28
2022-11-25T16:42:22.798Z,82.27
2022-11-25T16:47:27.132Z,82.47
2022-11-25T16:52:30.547Z,82.58
2022-11-25T16:57:35.200Z,82.43
2022-11-25T17:02:39.442Z,82.50
2022-11-25T17:07:43.718Z,82.45
2022-11-25T17:12:49.120Z,82.56
2022-11-25T17:17:52.840Z,82.89
2022-11-25T17:22:56.146Z,83.14
2022-11-25T17:28:00.473Z,83.34
2022-11-25T17:33:07.290Z,83.34
2022-11-25T17:38:29.112Z,83.23
2022-11-25T17:43:39.393Z,83.29
2022-11-25T17:48:43.104Z,83.57
2022-11-25T17:53:48.673Z,83.74
2022-11-25T17:58:53.311Z,83.87
2022-11-25T18:03:56.724Z,83.97
2022-11-25T18:09:00.132Z,84.06
2022-11-25T18:14:04.264Z,84.03
2022-11-25T18:19:12.590Z,84.15
2022-11-25T18:24:15.901Z,84.15
2022-11-25T18:29:26.276Z,84.19
2022-11-25T18:34:30.432Z,84.32
2022-11-25T18:39:34.807Z,84.44
2022-11-25T18:44:42.753Z,84.42
2022-11-25T18:49:49.799Z,84.38
2022-11-25T18:54:56.353Z,84.33
2022-11-25T19:00:30.424Z,84.39
2022-11-25T19:05:26.728Z,84.42
2022-11-25T19:10:35.671Z,84.50
2022-11-25T19:15:39.385Z,84.59
2022-11-25T19:20:42.797Z,84.59
2022-11-25T19:25:46.109Z,84.57
2022-11-25T19:30:58.530Z,84.55
2022-11-25T19:36:02.829Z,84.66
2022-11-25T19:41:06.488Z,84.83
2022-11-25T19:46:32.991Z,84.90
2022-11-25T19:51:40.655Z,85.03
2022-11-25T19:56:45.202Z,85.11
2022-11-25T20:01:49.540Z,85.11
2022-11-25T20:06:53.246Z,85.22
2022-11-25T20:11:59.015Z,85.42
2022-11-25T20:17:03.170Z,85.49
2022-11-25T20:22:07.379Z,85.77
2022-11-25T20:27:12.735Z,86.01
2022-11-25T20:32:25.464Z,86.19
2022-11-25T20:37:30.312Z,86.40
2022-11-25T20:42:33.941Z,86.43
2022-11-25T20:47:38.814Z,86.35
2022-11-25T20:52:43.417Z,86.35
2022-11-25T20:57:48.063Z,86.37
2022-11-25T21:02:51.948Z,86.34
2022-11-25T21:07:55.797Z,86.23
2022-11-25T21:12:59.320Z,86.34
2022-11-25T21:18:02.631Z,86.46
2022-11-25T21:23:07.679Z,86.54
2022-11-25T21:28:24.099Z,86.60
2022-11-25T21:33:27.718Z,86.69
2022-11-25T21:38:31.652Z,86.74
2022-11-25T21:43:41.616Z,86.92
2022-11-25T21:48:45.124Z,87.32
2022-11-25T21:53:51.042Z,87.57
2022-11-25T21:58:55.665Z,87.59
2022-11-25T22:03:59.457Z,87.64
2022-11-25T22:09:02.568Z,87.67
2022-11-25T22:14:13.667Z,87.68
2022-11-25T22:19:20.932Z,87.76
2022-11-25T22:24:24.480Z,87.73
2022-11-25T22:29:34.754Z,87.76
2022-11-25T22:34:38.058Z,87.86
2022-11-25T22:39:41.581Z,87.93
2022-11-25T22:44:46.231Z,87.85
2022-11-25T22:49:50.340Z,87.77
2022-11-25T22:54:53.971Z,87.78
2022-11-25T22:59:57.078Z,87.86
2022-11-25T23:05:00.362Z,87.88
2022-11-25T23:10:06.924Z,87.92
2022-11-25T23:15:18.323Z,87.95
2022-11-25T23:20:23.460Z,87.86
2022-11-25T23:25:26.834Z,87.71
2022-11-25T23:30:30.247Z,87.65
2022-11-25T23:35:37.451Z,87.68
2022-11-25T23:40:41.170Z,87.61
2022-11-25T23:45:51.630Z,87.59
2022-11-25T23:50:57.511Z,87.65
2022-11-25T23:56:01.249Z,87.71
